createdAt,value
2022-12-11T00:03:20.983Z,-2.00
2022-12-11T00:07:43.156Z,-2.00
2022-12-11T00:12:07.501Z,-2.10
2022-12-11T00:16:29.246Z,-2.20
2022-12-11T00:20:51.285Z,-2.20
2022-12-11T00:25:13.339Z,-2.30
2022-12-11T00:29:35.404Z,-2.30
2022-12-11T00:33:57.494Z,-2.30
2022-12-11T00:38:22.014Z,-2.30
2022-12-11T00:42:44.004Z,-2.30
2022-12-11T00:47:05.838Z,-2.30
2022-12-11T00:51:27.835Z,-2.40
2022-12-11T00:55:50.909Z,-2.40
2022-12-11T01:00:13.932Z,-2.40
2022-12-11T01:04:38.473Z,-2.40
2022-12-11T01:09:20.674Z,-2.30
2022-12-11T01:13:43.271Z,-2.30
2022-12-11T01:18:05.316Z,-2.30
2022-12-11T01:22:27.192Z,-2.30
2022-12-11T01:26:49.275Z,-2.30
2022-12-11T01:31:20.609Z,-2.30
2022-12-11T01:35:42.691Z,-2.30
2022-12-11T01:40:06.918Z,-2.30
2022-12-11T01:44:31.492Z,-2.30
2022-12-11T01:48:54.001Z,-2.40
2022-12-11T01:53:26.696Z,-2.40
2022-12-11T01:57:51.429Z,-2.50
2022-12-11T02:02:21.143Z,-2.60
2022-12-11T02:06:50.430Z,-2.50
2022-12-11T02:11:23.998Z,-2.50
2022-12-11T02:15:51.530Z,-2.50
2022-12-11T02:20:24.002Z,-2.50
2022-12-11T02:25:31.391Z,-2.50
2022-12-11T02:30:13.844Z,-2.50
2022-12-11T02:35:05.805Z,-2.50
2022-12-11T02:39:28.711Z,-2.50
2022-12-11T02:43:51.997Z,-2.60
2022-12-11T02:48:15.069Z,-2.60
2022-12-11T02:52:39.363Z,-2.60
2022-12-11T02:57:08.480Z,-2.60
2022-12-11T03:01:30.748Z,-2.60
2022-12-11T03:05:52.531Z,-2.60
2022-12-11T03:10:19.018Z,-2.70
2022-12-11T03:14:42.151Z,-2.70
2022-12-11T03:19:24.584Z,-2.70
2022-12-11T03:24:32.932Z,-2.80
2022-12-11T03:29:05.967Z,-2.80
2022-12-11T03:33:34.406Z,-2.90
2022-12-11T03:38:00.545Z,-3.00
2022-12-11T03:42:24.450Z,-3.00
2022-12-11T03:46:48.020Z,-3.10
2022-12-11T03:51:09.906Z,-3.20
2022-12-11T03:55:37.129Z,-3.10
2022-12-11T03:59:59.441Z,-3.10
2022-12-11T04:04:21.532Z,-3.10
2022-12-11T04:08:43.154Z,-3.10
2022-12-11T04:13:05.106Z,-3.10
2022-12-11T04:17:45.995Z,-3.10
2022-12-11T04:22:28.189Z,-3.10
2022-12-11T04:26:50.264Z,-3.10
2022-12-11T04:31:19.584Z,-3.00
2022-12-11T04:35:41.255Z,-3.00
2022-12-11T04:40:06.456Z,-2.90
2022-12-11T04:44:28.111Z,-2.90
2022-12-11T04:48:57.032Z,-2.90
2022-12-11T04:53:19.686Z,-2.90
2022-12-11T04:57:41.705Z,-2.90
2022-12-11T05:02:04.614Z,-2.90
2022-12-11T05:06:26.277Z,-3.00
2022-12-11T05:11:00.519Z,-3.00
2022-12-11T05:15:23.554Z,-3.00
2022-12-11T05:19:49.860Z,-3.10
2022-12-11T05:24:11.721Z,-3.20
2022-12-11T05:28:37.294Z,-3.20
2022-12-11T05:32:59.068Z,-3.20
2022-12-11T05:37:21.320Z,-3.20
2022-12-11T05:41:43.125Z,-3.30
2022-12-11T05:46:18.001Z,-3.30
2022-12-11T05:50:39.790Z,-3.30
2022-12-11T05:55:02.428Z,-3.30
2022-12-11T05:59:24.456Z,-3.20
2022-12-11T06:03:46.369Z,-3.30
2022-12-11T06:08:08.801Z,-3.40
2022-12-11T06:12:31.246Z,-3.50
2022-12-11T06:16:53.192Z,-3.40
2022-12-11T06:21:25.449Z,-3.50
2022-12-11T06:25:47.391Z,-3.60
2022-12-11T06:30:10.250Z,-3.70
2022-12-11T06:34:31.964Z,-3.80
2022-12-11T06:38:55.796Z,-3.80
2022-12-11T06:43:17.757Z,-3.70
2022-12-11T06:47:39.827Z,-3.70
2022-12-11T06:52:01.802Z,-3.70
2022-12-11T06:56:24.707Z,-3.70
2022-12-11T07:00:46.750Z,-3.70
2022-12-11T07:05:09.465Z,-3.70
2022-12-11T07:09:31.506Z,-3.70
2022-12-11T07:13:53.482Z,-3.70
2022-12-11T07:18:15.290Z,-3.70
2022-12-11T07:22:44.653Z,-3.80
2022-12-11T07:27:08.657Z,-3.70
2022-12-11T07:31:31.314Z,-3.70
2022-12-11T07:35:53.192Z,-3.70
2022-12-11T07:40:15.412Z,-3.70
2022-12-11T07:44:37.475Z,-3.70
2022-12-11T07:49:00.974Z,-3.70
2022-12-11T07:53:22.851Z,-3.60
2022-12-11T07:57:44.797Z,-3.40
2022-12-11T08:02:07.043Z,-3.20
2022-12-11T08:06:32.962Z,-3.00
2022-12-11T08:10:55.054Z,-2.90
2022-12-11T08:15:17.295Z,-2.80
2022-12-11T08:19:38.920Z,-2.70
2022-12-11T08:24:00.854Z,-2.70
2022-12-11T08:28:22.789Z,-2.90
2022-12-11T08:32:44.629Z,-2.90
2022-12-11T08:37:06.640Z,-2.70
2022-12-11T08:41:30.762Z,-2.50
2022-12-11T08:45:52.838Z,-2.20
2022-12-11T08:50:14.874Z,-2.00
2022-12-11T08:54:40.087Z,-1.80
2022-12-11T08:59:02.143Z,-1.70
2022-12-11T09:03:24.372Z,-1.40
2022-12-11T09:07:46.551Z,-1.20
2022-12-11T09:12:08.733Z,-0.80
2022-12-11T09:16:30.819Z,-0.70
2022-12-11T09:21:09.288Z,-0.80
2022-12-11T09:25:30.983Z,-0.70
2022-12-11T09:29:52.886Z,-0.50
2022-12-11T09:34:14.892Z,-0.60
2022-12-11T09:38:36.987Z,-0.70
2022-12-11T09:43:09.467Z,-0.80
2022-12-11T09:47:40.633Z,-0.90
2022-12-11T09:52:23.162Z,-1.10
2022-12-11T09:56:58.454Z,-1.30
2022-12-11T10:02:25.270Z,-1.40
2022-12-11T10:07:35.629Z,-1.30
2022-12-11T10:12:19.893Z,-1.00
2022-12-11T10:16:56.880Z,-0.10
2022-12-11T10:21:19.346Z,1.00
2022-12-11T10:25:51.672Z,2.80
2022-12-11T10:30:18.547Z,4.60
2022-12-11T10:34:45.353Z,5.00
2022-12-11T10:39:20.294Z,4.70
2022-12-11T10:43:49.136Z,3.80
2022-12-11T10:48:12.614Z,2.90
2022-12-11T10:52:44.779Z,1.90
2022-12-11T10:57:09.855Z,1.40
2022-12-11T11:01:33.071Z,1.10
2022-12-11T11:06:17.323Z,1.00
2022-12-11T11:10:49.320Z,0.70
2022-12-11T11:15:29.123Z,-0.10
2022-12-11T11:19:51.245Z,-0.50
2022-12-11T11:24:44.832Z,-0.60
2022-12-11T11:29:07.268Z,-0.60
2022-12-11T11:33:30.210Z,-0.50
2022-12-11T11:38:20.067Z,-0.50
2022-12-11T11:43:03.775Z,-0.70
2022-12-11T11:47:39.131Z,-0.80
2022-12-11T11:52:19.886Z,-0.90
2022-12-11T11:56:53.855Z,-0.80
2022-12-11T12:01:18.793Z,-0.70
2022-12-11T12:05:57.728Z,-0.50
2022-12-11T12:10:39.137Z,-0.20
2022-12-11T12:15:39.321Z,0.10
2022-12-11T12:20:19.958Z,-0.10
2022-12-11T12:24:53.984Z,-0.40
2022-12-11T12:30:04.054Z,-0.30
2022-12-11T12:35:03.281Z,0.00
2022-12-11T12:39:56.834Z,0.10
2022-12-11T12:44:22.813Z,-0.10
2022-12-11T12:48:46.112Z,-0.40
2022-12-11T12:53:14.405Z,-0.80
2022-12-11T12:57:38.635Z,-1.10
2022-12-11T13:02:04.245Z,-1.10
2022-12-11T13:06:42.795Z,-1.20
2022-12-11T13:11:10.298Z,-1.10
2022-12-11T13:15:40.861Z,-1.30
2022-12-11T13:20:34.261Z,-1.40
2022-12-11T13:25:01.738Z,-1.40
2022-12-11T13:29:39.452Z,-1.50
2022-12-11T13:34:16.199Z,-1.70
2022-12-11T13:38:45.974Z,-2.00
2022-12-11T13:43:22.466Z,-2.10
2022-12-11T13:47:45.065Z,-2.30
2022-12-11T13:52:07.352Z,-2.40
2022-12-11T13:56:29.401Z,-2.50
2022-12-11T14:01:13.900Z,-2.60
2022-12-11T14:05:36.602Z,-2.80
2022-12-11T14:10:10.032Z,-2.80
2022-12-11T14:14:43.686Z,-2.80
2022-12-11T14:19:07.651Z,-2.80
2022-12-11T14:23:35.830Z,-2.80
2022-12-11T14:27:57.962Z,-2.90
2022-12-11T14:32:36.936Z,-3.00
2022-12-11T14:37:00.976Z,-3.10
2022-12-11T14:41:39.215Z,-3.10
2022-12-11T14:46:55.950Z,-3.20
2022-12-11T14:51:19.566Z,-3.10
2022-12-11T14:55:42.094Z,-3.20
2022-12-11T15:00:41.512Z,-3.30
2022-12-11T15:05:18.615Z,-3.40
2022-12-11T15:09:43.662Z,-3.50
2022-12-11T15:14:05.973Z,-3.50
2022-12-11T15:18:36.131Z,-3.50
2022-12-11T15:23:01.809Z,-3.60
2022-12-11T15:27:40.224Z,-3.60
2022-12-11T15:32:19.052Z,-3.50
2022-12-11T15:36:41.038Z,-3.50
2022-12-11T15:41:04.576Z,-3.50
2022-12-11T15:45:29.110Z,-3.50
2022-12-11T15:49:55.131Z,-3.60
2022-12-11T15:54:17.990Z,-3.60
2022-12-11T15:58:39.982Z,-3.60
2022-12-11T16:03:01.991Z,-3.60
2022-12-11T16:07:26.228Z,-3.60
2022-12-11T16:11:47.879Z,-3.60
2022-12-11T16:16:11.278Z,-3.50
2022-12-11T16:20:34.658Z,-3.50
2022-12-11T16:24:56.927Z,-3.60
2022-12-11T16:29:18.771Z,-3.60
2022-12-11T16:33:40.757Z,-3.60
2022-12-11T16:38:08.735Z,-3.60
2022-12-11T16:42:31.201Z,-3.60
2022-12-11T16:46:54.403Z,-3.60
2022-12-11T16:51:17.105Z,-3.50
2022-12-11T16:55:40.531Z,-3.50
2022-12-11T17:00:03.559Z,-3.50
2022-12-11T17:04:25.435Z,-3.60
2022-12-11T17:08:47.717Z,-3.60
2022-12-11T17:13:09.564Z,-3.60
2022-12-11T17:17:32.292Z,-3.60
2022-12-11T17:21:55.626Z,-3.60
2022-12-11T17:26:18.425Z,-3.70
2022-12-11T17:30:42.875Z,-3.70
2022-12-11T17:35:04.994Z,-3.70
2022-12-11T17:39:26.684Z,-3.70
2022-12-11T17:43:51.354Z,-3.70
2022-12-11T17:48:14.034Z,-3.80
2022-12-11T17:52:42.513Z,-3.80
2022-12-11T17:57:06.935Z,-3.80
2022-12-11T18:01:28.955Z,-3.80
2022-12-11T18:05:54.873Z,-3.80
2022-12-11T18:10:16.714Z,-3.70
2022-12-11T18:14:41.447Z,-3.70
2022-12-11T18:19:05.462Z,-3.70
2022-12-11T18:23:28.115Z,-3.70
2022-12-11T18:27:50.828Z,-3.70
2022-12-11T18:32:12.470Z,-3.70
2022-12-11T18:36:34.753Z,-3.70
2022-12-11T18:40:56.521Z,-3.60
2022-12-11T18:45:18.529Z,-3.60
2022-12-11T18:49:40.646Z,-3.60
2022-12-11T18:54:02.740Z,-3.60
2022-12-11T18:58:24.602Z,-3.60
2022-12-11T19:02:49.638Z,-3.60
2022-12-11T19:07:11.644Z,-3.70
2022-12-11T19:11:35.744Z,-3.70
2022-12-11T19:15:57.629Z,-3.70
2022-12-11T19:20:47.596Z,-3.70
2022-12-11T19:25:02.543Z,-3.50
2022-12-11T19:29:29.798Z,-3.60
2022-12-11T19:33:51.656Z,-3.60
2022-12-11T19:38:14.374Z,-3.70
2022-12-11T19:42:36.684Z,-3.70
2022-12-11T19:46:58.713Z,-3.70
2022-12-11T19:51:25.418Z,-3.70
2022-12-11T19:55:54.024Z,-3.70
2022-12-11T20:00:16.641Z,-3.80
2022-12-11T20:04:39.089Z,-3.80
2022-12-11T20:09:03.550Z,-3.80
2022-12-11T20:13:25.596Z,-3.90
2022-12-11T20:17:47.643Z,-3.90
2022-12-11T20:22:10.312Z,-4.00
2022-12-11T20:26:36.033Z,-4.00
2022-12-11T20:31:08.827Z,-3.90
2022-12-11T20:35:30.994Z,-3.90
2022-12-11T20:39:53.791Z,-3.90
2022-12-11T20:44:15.830Z,-3.90
2022-12-11T20:48:38.831Z,-3.90
2022-12-11T20:53:00.645Z,-3.90
2022-12-11T20:57:22.720Z,-3.80
2022-12-11T21:01:45.253Z,-3.80
2022-12-11T21:06:07.140Z,-3.80
2022-12-11T21:10:29.136Z,-3.80
2022-12-11T21:14:51.091Z,-3.90
2022-12-11T21:19:17.047Z,-3.80
2022-12-11T21:23:39.060Z,-3.90
2022-12-11T21:28:01.903Z,-3.80
2022-12-11T21:32:24.173Z,-3.80
2022-12-11T21:36:47.481Z,-3.80
2022-12-11T21:41:15.730Z,-3.80
2022-12-11T21:46:00.362Z,-3.80
2022-12-11T21:50:19.910Z,-3.80
2022-12-11T21:54:42.669Z,-3.80
2022-12-11T21:59:04.971Z,-3.80
2022-12-11T22:03:27.194Z,-3.80
2022-12-11T22:07:49.176Z,-3.80
2022-12-11T22:12:23.033Z,-3.80
2022-12-11T22:16:45.882Z,-3.80
2022-12-11T22:21:08.079Z,-3.90
2022-12-11T22:25:30.251Z,-3.90
2022-12-11T22:29:52.353Z,-3.80
2022-12-11T22:34:14.035Z,-3.80
2022-12-11T22:38:36.420Z,-3.80
2022-12-11T22:42:58.783Z,-3.70
2022-12-11T22:47:20.514Z,-3.70
2022-12-11T22:51:42.574Z,-3.70
2022-12-11T22:56:07.170Z,-3.70
2022-12-11T23:00:29.107Z,-3.80
2022-12-11T23:04:50.861Z,-3.80
2022-12-11T23:09:12.851Z,-3.80
2022-12-11T23:13:34.836Z,-3.80
2022-12-11T23:17:56.856Z,-3.90
2022-12-11T23:22:20.433Z,-3.80
2022-12-11T23:26:42.647Z,-3.80
2022-12-11T23:31:05.402Z,-3.90
2022-12-11T23:35:27.602Z,-3.80
2022-12-11T23:39:49.551Z,-3.90
2022-12-11T23:44:11.761Z,-3.90
2022-12-11T23:48:33.794Z,-3.90
2022-12-11T23:52:55.619Z,-3.90
2022-12-11T23:57:17.575Z,-3.90
